Time;durP1;ratioP1;P1;durP2;ratioP2;P2;SDS_P1;SDS_P2;PMS_P1;PMS_P2;Temp;Humidity;BMP_temperature;BMP_pressure;BME280_temperature;BME280_humidity;BME280_pressure;Samples;Min_cycle;Max_cycle;Signal;HPM_P1;HPM_P2
2021/06/17 00:02:13;;;;;;;7.72;7.00;;;;;;;18.90;62.35;95240.56;5047337;28;20041;-66
2021/06/17 00:04:39;;;;;;;9.75;6.20;;;;;;;18.85;62.62;95238.16;5047812;28;20025;-67
2021/06/17 00:07:04;;;;;;;8.98;6.60;;;;;;;18.88;62.62;95247.44;5047768;28;20491;-67
2021/06/17 00:09:30;;;;;;;9.05;6.45;;;;;;;18.81;62.71;95240.00;5029895;28;20576;-65
2021/06/17 00:12:00;;;;;;;6.78;6.18;;;;;;;18.89;62.99;95246.34;5050008;28;20398;-65
2021/06/17 00:14:28;;;;;;;7.38;6.78;;;;;;;18.81;62.98;95234.59;5045791;28;20040;-65
2021/06/17 00:16:54;;;;;;;7.50;6.80;;;;;;;18.76;63.09;95228.72;5028971;28;20044;-65
2021/06/17 00:19:19;;;;;;;8.55;6.78;;;;;;;18.81;63.30;95252.69;5047640;28;20052;-65
2021/06/17 00:21:44;;;;;;;7.97;7.13;;;;;;;18.70;63.33;95234.38;5047620;28;20055;-65
2021/06/17 00:24:10;;;;;;;7.65;6.90;;;;;;;18.75;63.71;95251.41;5049174;28;20021;-64
2021/06/17 00:26:36;;;;;;;7.10;6.50;;;;;;;18.58;63.43;95233.69;5047595;28;20123;-64
2021/06/17 00:29:01;;;;;;;9.95;7.10;;;;;;;18.61;63.78;95244.56;5046358;28;20036;-65
2021/06/17 00:31:26;;;;;;;7.00;6.40;;;;;;;18.62;63.97;95242.63;5044130;28;20061;-65
2021/06/17 00:33:51;;;;;;;7.20;6.53;;;;;;;18.53;64.19;95234.78;5044247;28;20037;-65
2021/06/17 00:36:17;;;;;;;7.40;6.70;;;;;;;18.50;64.35;95238.16;5048693;28;20025;-66
2021/06/17 00:38:43;;;;;;;8.70;6.60;;;;;;;18.52;64.33;95238.56;5053263;28;20036;-65
2021/06/17 00:41:08;;;;;;;7.47;6.75;;;;;;;18.50;64.59;95238.16;5051269;28;20041;-66
2021/06/17 00:43:34;;;;;;;6.72;6.13;;;;;;;18.47;64.50;95227.31;5050921;28;20044;-66
2021/06/17 00:45:59;;;;;;;9.40;7.07;;;;;;;18.34;64.67;95202.41;5051239;28;20223;-66
2021/06/17 00:48:24;;;;;;;7.80;7.07;;;;;;;18.32;64.58;95208.13;5038571;28;20020;-66
2021/06/17 00:50:52;;;;;;;7.30;6.70;;;;;;;18.44;64.71;95218.03;5052943;28;20027;-65
2021/06/17 00:53:24;;;;;;;6.90;6.22;;;;;;;18.44;65.00;95226.09;5050390;28;20062;-66
2021/06/17 00:55:51;;;;;;;7.00;6.40;;;;;;;18.32;65.15;95213.50;5033190;28;20107;-67
2021/06/17 00:58:16;;;;;;;7.75;7.10;;;;;;;18.31;65.08;95216.56;5051027;28;20103;-65
2021/06/17 01:00:42;;;;;;;7.15;6.55;;;;;;;18.32;65.37;95232.38;5033153;28;20115;-66
2021/06/17 01:03:08;;;;;;;6.85;6.20;;;;;;;18.26;65.33;95219.53;5030964;28;20573;-65
2021/06/17 01:05:34;;;;;;;7.63;6.90;;;;;;;18.28;65.43;95223.44;5069236;28;20045;-65
2021/06/17 01:08:02;;;;;;;9.20;7.05;;;;;;;18.26;65.64;95235.69;5052796;28;20040;-65
2021/06/17 01:11:01;;;;;;;7.03;6.43;;;;;;;18.21;65.88;95225.97;5060056;28;20502;-65
2021/06/17 01:14:03;;;;;;;7.15;6.43;;;;;;;18.19;66.05;95228.25;5032428;28;20103;-66
2021/06/17 01:16:35;;;;;;;8.48;6.38;;;;;;;18.06;66.11;95205.22;5060418;28;20293;-66
2021/06/17 01:19:23;;;;;;;6.60;6.00;;;;;;;18.10;66.15;95212.25;5044837;28;20517;-65
2021/06/17 01:21:57;;;;;;;7.15;6.45;;;;;;;18.15;66.27;95222.75;5026659;28;20144;-65
2021/06/17 01:24:30;;;;;;;6.78;6.18;;;;;;;18.14;66.49;95223.91;5050329;28;20036;-65
2021/06/17 01:27:17;;;;;;;6.80;6.28;;;;;;;18.11;66.51;95219.19;5051156;28;20078;-66
2021/06/17 01:29:47;;;;;;;7.15;6.45;;;;;;;18.09;66.52;95215.31;5071095;28;20398;-65
2021/06/17 01:32:14;;;;;;;6.70;6.18;;;;;;;18.01;66.43;95200.91;5063842;28;20047;-65
2021/06/17 01:34:40;;;;;;;6.38;5.88;;;;;;;17.95;66.94;95202.31;5050458;28;20037;-65
2021/06/17 01:37:09;;;;;;;7.05;6.45;;;;;;;18.02;66.85;95215.94;5016265;28;20391;-65
2021/06/17 01:39:38;;;;;;;6.88;6.22;;;;;;;17.94;66.79;95206.13;5050587;28;20128;-66
2021/06/17 01:42:06;;;;;;;6.72;6.13;;;;;;;17.95;67.18;95218.44;5052307;28;20624;-65
2021/06/17 01:44:32;;;;;;;8.55;6.18;;;;;;;17.86;67.20;95201.69;5050032;28;20037;-66
2021/06/17 01:46:58;;;;;;;10.73;6.85;;;;;;;17.84;67.18;95198.59;5049619;28;20037;-66
2021/06/17 01:49:24;;;;;;;7.75;7.03;;;;;;;17.73;67.51;95184.09;5050132;28;20021;-66
2021/06/17 01:51:51;;;;;;;9.50;7.00;;;;;;;17.78;67.43;95194.59;5032302;28;20047;-65
2021/06/17 01:54:21;;;;;;;8.07;6.30;;;;;;;17.83;67.78;95213.16;5049673;28;20044;-65
2021/06/17 01:56:51;;;;;;;6.78;6.13;;;;;;;17.69;67.82;95189.34;5033976;28;20032;-65
2021/06/17 01:59:19;;;;;;;7.53;6.80;;;;;;;17.71;67.84;95195.19;5050046;28;20468;-66
2021/06/17 02:01:45;;;;;;;9.70;7.07;;;;;;;17.76;68.00;95204.91;5049374;28;20446;-65
2021/06/17 02:04:10;;;;;;;8.02;7.13;;;;;;;17.57;67.82;95174.09;5041187;28;20049;-65
2021/06/17 02:06:36;;;;;;;7.13;6.43;;;;;;;17.65;68.21;95186.56;5050160;28;20090;-65
2021/06/17 02:09:05;;;;;;;7.05;6.45;;;;;;;17.76;67.95;95204.91;5051913;28;20033;-67
2021/06/17 02:11:32;;;;;;;8.27;7.00;;;;;;;17.64;68.07;95185.00;5049853;28;20033;-65
2021/06/17 02:13:59;;;;;;;6.93;6.32;;;;;;;17.70;68.18;95201.69;5049512;28;20033;-66
2021/06/17 02:16:27;;;;;;;7.78;7.10;;;;;;;17.72;68.11;95195.97;5049820;28;20178;-65
2021/06/17 02:18:55;;;;;;;11.90;7.80;;;;;;;17.68;68.13;95193.97;5048959;28;20083;-65
2021/06/17 02:21:21;;;;;;;8.05;7.32;;;;;;;17.58;68.19;95183.72;5049439;28;20028;-65
2021/06/17 02:23:54;;;;;;;8.38;7.20;;;;;;;17.60;68.39;95177.97;5050961;28;20025;-66
2021/06/17 02:26:21;;;;;;;7.70;7.00;;;;;;;17.62;68.72;95187.28;5049155;28;20487;-65
2021/06/17 02:28:50;;;;;;;8.20;7.35;;;;;;;17.51;68.78;95172.81;5049416;28;20044;-65
2021/06/17 02:31:19;;;;;;;8.00;7.30;;;;;;;17.58;69.05;95180.25;5049273;28;20033;-65
2021/06/17 02:33:47;;;;;;;7.88;7.18;;;;;;;17.46;68.86;95166.91;5048325;28;20036;-65
2021/06/17 02:36:13;;;;;;;9.52;7.57;;;;;;;17.57;68.91;95186.75;5033208;28;20021;-65
2021/06/17 02:38:41;;;;;;;8.55;7.10;;;;;;;17.55;68.86;95187.09;5031709;28;20128;-65
2021/06/17 02:41:11;;;;;;;7.20;6.50;;;;;;;17.56;68.81;95188.69;5031193;28;20040;-65
2021/06/17 02:43:40;;;;;;;9.63;7.05;;;;;;;17.60;68.57;95183.38;5048617;28;20036;-65
2021/06/17 02:46:06;;;;;;;8.57;6.55;;;;;;;17.52;68.70;95171.66;5048023;28;20139;-66
2021/06/17 02:48:32;;;;;;;8.88;7.07;;;;;;;17.47;68.44;95166.53;5040368;28;20036;-65
2021/06/17 02:50:58;;;;;;;7.00;6.25;;;;;;;17.59;68.49;95181.81;5050663;28;20025;-65
2021/06/17 02:53:24;;;;;;;7.47;6.80;;;;;;;17.56;68.61;95180.59;5066317;28;20079;-65
2021/06/17 02:55:49;;;;;;;8.00;7.13;;;;;;;17.55;68.60;95179.03;5068516;28;20489;-66
2021/06/17 02:58:54;;;;;;;8.65;7.20;;;;;;;17.52;68.60;95177.03;5059814;28;20043;-65
2021/06/17 03:01:28;;;;;;;8.65;6.75;;;;;;;17.50;68.57;95167.75;5039359;28;20040;-65
2021/06/17 03:03:59;;;;;;;7.40;6.75;;;;;;;17.33;68.72;95144.69;5051166;28;20051;-65
2021/06/17 03:06:41;;;;;;;7.63;6.88;;;;;;;17.36;68.92;95152.84;5048590;28;20023;-65
2021/06/17 03:09:12;;;;;;;8.30;7.50;;;;;;;17.43;68.59;95157.59;5050709;28;20390;-65
2021/06/17 03:11:41;;;;;;;8.10;7.38;;;;;;;17.40;68.77;95160.97;5049164;28;20049;-65
2021/06/17 03:14:12;;;;;;;7.88;7.18;;;;;;;17.36;69.08;95158.22;5030053;28;20144;-65
2021/06/17 03:16:39;;;;;;;7.90;7.07;;;;;;;17.18;68.83;95123.94;5048570;28;20036;-65
2021/06/17 03:19:08;;;;;;;7.55;6.95;;;;;;;17.38;69.10;95149.81;5047985;28;20049;-65
2021/06/17 03:21:39;;;;;;;8.82;6.88;;;;;;;17.40;69.23;95153.72;5048127;28;20068;-65
2021/06/17 03:24:06;;;;;;;7.95;7.25;;;;;;;17.26;68.64;95131.84;5032081;28;20017;-70
2021/06/17 03:26:35;;;;;;;9.30;7.13;;;;;;;17.32;68.87;95135.84;5028994;28;20120;-65
2021/06/17 03:29:00;;;;;;;7.43;6.72;;;;;;;17.45;68.89;95158.03;5025154;28;20119;-66
2021/06/17 03:31:28;;;;;;;7.32;6.70;;;;;;;17.41;69.04;95149.13;5038273;28;20069;-66
2021/06/17 03:33:54;;;;;;;7.82;6.43;;;;;;;17.40;68.56;95152.91;5033845;28;20601;-66
2021/06/17 03:36:20;;;;;;;7.97;6.07;;;;;;;17.49;68.28;95160.81;5050083;28;20029;-66
2021/06/17 03:38:47;;;;;;;6.50;5.90;;;;;;;17.52;68.17;95168.19;5070315;28;20039;-66
2021/06/17 03:41:13;;;;;;;8.38;5.40;;;;;;;17.55;67.98;95162.88;5050084;28;20044;-66
2021/06/17 03:43:40;;;;;;;6.78;5.40;;;;;;;17.63;67.42;95172.69;5067750;28;20025;-66
2021/06/17 03:46:10;;;;;;;5.72;5.28;;;;;;;17.71;67.45;95173.66;5068203;28;20090;-66
2021/06/17 03:48:40;;;;;;;5.85;5.30;;;;;;;17.81;66.98;95169.66;5055493;28;20068;-65
2021/06/17 03:51:06;;;;;;;6.38;5.78;;;;;;;17.64;66.50;95133.13;5058107;28;20055;-65
2021/06/17 03:53:32;;;;;;;5.93;5.35;;;;;;;17.87;66.22;95160.22;5047844;28;20081;-66
2021/06/17 03:55:59;;;;;;;11.38;4.60;;;;;;;17.93;65.97;95164.19;5048006;28;20065;-66
2021/06/17 03:58:25;;;;;;;6.05;5.50;;;;;;;18.00;65.93;95160.88;5047997;28;20490;-66
2021/06/17 04:00:54;;;;;;;6.85;5.25;;;;;;;18.05;65.41;95161.38;5047915;28;20072;-66
2021/06/17 04:03:20;;;;;;;5.20;4.80;;;;;;;18.25;64.91;95178.38;5047032;28;20469;-66
2021/06/17 04:05:46;;;;;;;4.80;4.13;;;;;;;18.61;64.25;95187.19;5049474;28;20096;-66
2021/06/17 04:08:14;;;;;;;5.80;4.28;;;;;;;19.02;63.06;95193.81;5048090;28;20061;-67
2021/06/17 04:10:41;;;;;;;4.82;3.60;;;;;;;19.35;61.54;95195.97;5048233;28;20037;-69
2021/06/17 04:13:09;;;;;;;4.00;3.60;;;;;;;19.61;60.83;95179.13;5033623;28;20045;-68
2021/06/17 04:15:35;;;;;;;5.13;3.92;;;;;;;19.98;59.85;95173.91;5051943;28;20052;-66
2021/06/17 04:18:03;;;;;;;4.50;3.75;;;;;;;20.31;58.46;95180.53;5053538;28;20065;-74
2021/06/17 04:20:33;;;;;;;4.85;3.63;;;;;;;20.75;57.63;95196.22;5051047;28;20099;-65
2021/06/17 04:22:59;;;;;;;4.88;3.85;;;;;;;21.03;56.37;95195.75;5051337;28;20064;-65
2021/06/17 04:25:25;;;;;;;4.18;2.97;;;;;;;21.31;55.29;95202.69;5033670;28;20565;-65
2021/06/17 04:27:59;;;;;;;5.10;3.50;;;;;;;21.49;54.44;95195.50;5051560;28;20075;-65
2021/06/17 04:30:30;;;;;;;5.88;3.50;;;;;;;21.81;53.52;95190.38;5051504;28;20481;-72
2021/06/17 04:32:58;;;;;;;3.75;3.45;;;;;;;22.04;52.42;95201.00;5034926;28;20043;-65
2021/06/17 04:35:25;;;;;;;3.90;3.17;;;;;;;22.21;51.73;95202.28;5051212;28;20086;-66
2021/06/17 04:37:51;;;;;;;6.05;3.30;;;;;;;22.34;51.60;95202.78;5051522;28;20045;-70
2021/06/17 04:40:18;;;;;;;8.70;3.50;;;;;;;22.49;51.40;95201.72;5033272;28;20040;-66
2021/06/17 04:42:44;;;;;;;4.85;3.13;;;;;;;22.71;51.27;95203.38;5050819;28;20090;-62
2021/06/17 04:45:10;;;;;;;3.17;2.90;;;;;;;22.91;50.60;95205.81;5053606;28;20408;-65
2021/06/17 04:47:39;;;;;;;3.95;3.25;;;;;;;22.95;49.61;95199.25;5050792;28;20036;-66
2021/06/17 04:50:07;;;;;;;3.60;3.13;;;;;;;23.11;48.78;95217.13;5043686;28;20099;-67
2021/06/17 04:52:39;;;;;;;5.95;4.03;;;;;;;23.27;49.14;95212.91;5049101;28;20394;-65
2021/06/17 04:55:05;;;;;;;4.30;3.70;;;;;;;23.35;49.06;95216.44;5050920;28;20098;-63
2021/06/17 04:57:31;;;;;;;7.43;4.50;;;;;;;23.53;49.04;95213.75;5050530;28;20135;-68
2021/06/17 04:59:56;;;;;;;6.35;4.70;;;;;;;23.67;48.50;95218.47;5052897;28;20100;-69
2021/06/17 05:02:22;;;;;;;7.65;4.10;;;;;;;23.60;48.42;95205.63;5050453;28;20052;-70
2021/06/17 05:04:47;;;;;;;7.43;4.50;;;;;;;23.83;48.67;95218.88;5039735;28;20033;-71
2021/06/17 05:12:26;;;;;;;6.65;3.67;;;;;;;24.07;47.72;95220.81;5050830;28;20044;-72
2021/06/17 05:14:52;;;;;;;8.35;3.45;;;;;;;24.16;47.67;95212.28;5052914;28;20104;-70
2021/06/17 05:17:17;;;;;;;4.63;3.75;;;;;;;24.18;47.67;95203.72;5050813;28;20483;-70
2021/06/17 05:19:42;;;;;;;4.53;3.40;;;;;;;24.23;47.28;95206.84;5032240;28;20040;-70
2021/06/17 05:22:09;;;;;;;6.70;3.90;;;;;;;24.36;47.30;95223.53;5037352;28;20069;-71
2021/06/17 05:24:35;;;;;;;12.23;3.42;;;;;;;24.47;47.91;95224.31;5050446;28;20037;-70
2021/06/17 05:27:01;;;;;;;5.63;3.90;;;;;;;24.47;47.78;95212.66;5034597;28;20035;-71
2021/06/17 05:29:26;;;;;;;15.90;3.67;;;;;;;24.54;47.50;95210.69;5050547;28;20040;-71
2021/06/17 05:31:51;;;;;;;6.63;3.58;;;;;;;24.59;46.88;95209.53;5019254;28;20041;-70
2021/06/17 05:34:17;;;;;;;14.73;4.40;;;;;;;24.63;46.01;95207.56;5038316;28;20041;-71
2021/06/17 05:36:42;;;;;;;8.18;3.47;;;;;;;24.79;46.38;95209.84;5050793;28;20029;-70
2021/06/17 05:39:08;;;;;;;7.43;3.60;;;;;;;24.90;46.14;95219.53;5052485;28;20028;-70
2021/06/17 05:41:33;;;;;;;8.90;3.65;;;;;;;24.98;45.85;95212.13;5032263;28;20483;-70
2021/06/17 05:43:59;;;;;;;6.55;3.70;;;;;;;25.22;44.91;95237.69;5049489;28;20048;-65
2021/06/17 05:46:24;;;;;;;9.60;3.95;;;;;;;25.33;45.54;95230.25;5049828;28;20105;-66
2021/06/17 05:48:49;;;;;;;5.65;3.80;;;;;;;25.08;44.81;95181.41;5052670;28;20512;-65
2021/06/17 05:51:15;;;;;;;8.45;3.70;;;;;;;25.32;44.38;95225.97;5049023;28;20489;-66
2021/06/17 05:53:40;;;;;;;3.40;3.10;;;;;;;24.82;44.04;95166.28;5051461;28;20033;-68
2021/06/17 05:56:06;;;;;;;3.92;3.30;;;;;;;25.11;44.55;95213.25;5049556;28;20713;-72
2021/06/17 05:58:31;;;;;;;7.22;3.75;;;;;;;25.23;44.87;95227.59;5049827;28;20517;-71
2021/06/17 06:00:57;;;;;;;8.32;4.03;;;;;;;25.29;44.43;95226.03;5049615;28;20506;-72
2021/06/17 06:03:22;;;;;;;5.25;4.10;;;;;;;25.05;45.04;95222.97;5043906;28;20029;-71
2021/06/17 06:05:48;;;;;;;3.63;3.15;;;;;;;24.87;44.83;95195.81;5048409;28;20009;-71
2021/06/17 06:08:14;;;;;;;7.40;3.42;;;;;;;25.17;45.40;95227.22;5049801;28;20037;-73
2021/06/17 06:10:41;;;;;;;3.35;3.05;;;;;;;25.27;45.57;95222.91;5031735;28;20037;-66
2021/06/17 06:13:06;;;;;;;5.65;3.85;;;;;;;25.33;45.96;95211.19;5049663;28;20040;-77
2021/06/17 06:15:33;;;;;;;5.40;3.38;;;;;;;25.50;45.54;95228.63;5054411;28;20045;-81
2021/06/17 06:18:05;;;;;;;4.85;3.45;;;;;;;25.23;44.76;95179.34;5070000;28;20029;-74
2021/06/17 06:20:32;;;;;;;4.57;3.65;;;;;;;25.58;44.70;95216.50;5030513;28;20057;-79
2021/06/17 06:22:57;;;;;;;6.00;3.75;;;;;;;25.62;44.81;95228.16;5041962;28;20111;-71
2021/06/17 06:25:22;;;;;;;6.35;3.05;;;;;;;25.60;44.84;95213.41;5049603;28;20494;-73
2021/06/17 06:27:48;;;;;;;4.07;2.78;;;;;;;25.62;44.70;95205.59;5045044;28;20037;-72
2021/06/17 06:30:14;;;;;;;5.13;3.65;;;;;;;25.56;44.13;95194.34;5029724;28;20095;-67
2021/06/17 06:32:39;;;;;;;5.90;3.47;;;;;;;25.72;44.29;95237.44;5030802;28;20033;-70
2021/06/17 06:35:06;;;;;;;7.10;3.50;;;;;;;25.03;45.14;95224.53;5036663;28;20140;-74
2021/06/17 06:37:31;;;;;;;5.50;3.70;;;;;;;25.10;45.33;95210.94;5048876;28;20041;-64
2021/06/17 06:39:57;;;;;;;6.63;3.80;;;;;;;25.46;45.36;95232.53;5048986;28;20045;-66
2021/06/17 06:42:22;;;;;;;4.85;3.33;;;;;;;25.71;45.12;95240.56;5048537;28;20032;-65
2021/06/17 06:44:47;;;;;;;4.90;4.07;;;;;;;25.86;44.67;95237.38;5050864;28;20024;-65
2021/06/17 06:47:13;;;;;;;11.43;4.63;;;;;;;25.97;44.22;95236.53;5048765;28;20060;-65
2021/06/17 06:49:38;;;;;;;5.00;4.00;;;;;;;26.05;44.14;95238.00;5048214;28;20084;-65
2021/06/17 06:52:04;;;;;;;3.80;3.50;;;;;;;25.98;44.41;95235.34;5048611;28;20044;-65
2021/06/17 06:54:29;;;;;;;4.32;3.13;;;;;;;25.91;43.92;95245.13;5048030;28;20044;-65
2021/06/17 06:56:54;;;;;;;4.60;3.75;;;;;;;25.90;44.71;95240.09;5050425;28;20159;-65
2021/06/17 06:59:20;;;;;;;5.05;3.55;;;;;;;25.95;44.30;95239.66;5048580;28;20040;-65
2021/06/17 08:22:43;;;;;;;3.53;3.10;;;;;;;26.21;41.51;95265.56;5047585;28;20065;-68
2021/06/17 08:25:11;;;;;;;3.90;3.17;;;;;;;26.65;40.79;95264.78;5021595;28;20045;-68
2021/06/17 08:27:37;;;;;;;4.47;3.72;;;;;;;26.26;41.82;95267.84;5031113;28;20056;-68
2021/06/17 08:30:04;;;;;;;4.00;3.53;;;;;;;26.39;40.78;95262.66;5049778;28;20028;-66
2021/06/17 08:32:29;;;;;;;5.82;3.55;;;;;;;26.26;40.71;95248.75;5028752;28;20034;-68
2021/06/17 08:34:55;;;;;;;3.95;3.63;;;;;;;26.66;39.81;95266.31;5041035;28;20132;-67
2021/06/17 08:37:20;;;;;;;5.57;3.30;;;;;;;26.57;40.53;95248.91;5042809;28;20439;-68
2021/06/17 08:39:46;;;;;;;5.82;3.55;;;;;;;26.71;40.03;95256.94;5026315;28;20496;-70
2021/06/17 08:42:11;;;;;;;5.35;3.13;;;;;;;27.15;40.09;95282.63;5029271;28;20030;-70
2021/06/17 08:44:36;;;;;;;3.47;3.20;;;;;;;27.38;38.52;95255.44;5026556;28;20076;-70
2021/06/17 08:47:02;;;;;;;4.88;3.67;;;;;;;27.43;37.86;95262.38;5013039;28;20034;-70
2021/06/17 08:49:27;;;;;;;5.82;3.30;;;;;;;26.87;39.03;95234.53;5009497;28;20044;-70
2021/06/17 08:52:00;;;;;;;5.32;3.58;;;;;;;27.56;38.14;95257.94;5013046;28;20041;-71
2021/06/17 08:54:26;;;;;;;3.88;3.30;;;;;;;27.85;36.94;95268.50;5025651;28;20049;-70
2021/06/17 08:56:53;;;;;;;3.55;3.10;;;;;;;28.03;37.07;95268.22;5010053;28;20029;-71
2021/06/17 08:59:18;;;;;;;4.30;3.30;;;;;;;27.97;37.10;95246.81;5011503;28;20551;-70
2021/06/17 09:01:54;;;;;;;6.30;3.25;;;;;;;27.95;36.96;95248.44;5022395;28;20049;-70
2021/06/17 09:04:26;;;;;;;7.03;3.20;;;;;;;27.55;38.42;95264.59;5048343;28;20033;-71
2021/06/17 09:07:31;;;;;;;3.63;3.33;;;;;;;27.68;38.96;95259.31;5050893;28;20041;-70
2021/06/17 09:09:57;;;;;;;4.40;3.40;;;;;;;27.78;38.26;95228.34;5039056;28;20044;-71
2021/06/17 09:12:22;;;;;;;5.35;3.20;;;;;;;28.23;37.63;95252.69;5030340;28;20104;-70
2021/06/17 09:14:52;;;;;;;6.20;3.35;;;;;;;28.40;37.90;95251.63;5032963;28;20030;-70
2021/06/17 09:17:19;;;;;;;6.78;3.22;;;;;;;28.24;37.49;95227.63;5031004;28;20045;-69
2021/06/17 09:19:46;;;;;;;5.47;3.72;;;;;;;28.32;38.10;95241.22;5042077;28;20036;-71
2021/06/17 09:22:18;;;;;;;5.10;3.55;;;;;;;28.29;37.60;95256.47;5065707;28;20102;-70
2021/06/17 09:24:44;;;;;;;;;;;;;;;28.01;38.36;95262.41;5051201;28;20033;-70
2021/06/17 09:27:20;;;;;;;5.18;3.47;;;;;;;28.00;37.44;95267.09;5052859;28;19917;-68
2021/06/17 09:29:45;;;;;;;8.88;3.30;;;;;;;28.05;36.96;95243.97;5051183;28;20041;-68
2021/06/17 09:32:28;;;;;;;5.60;3.10;;;;;;;28.15;37.23;95273.91;5051015;28;20029;-69
2021/06/17 09:34:54;;;;;;;4.78;3.17;;;;;;;27.95;37.48;95246.47;5038285;28;20069;-70
2021/06/17 09:37:27;;;;;;;7.53;3.00;;;;;;;27.84;37.10;95270.44;5050519;28;20051;-69
2021/06/17 09:39:53;;;;;;;7.82;3.40;;;;;;;27.43;35.42;95249.50;5032623;28;20067;-69
2021/06/17 09:42:19;;;;;;;4.55;2.70;;;;;;;27.45;34.90;95269.00;5032115;28;20029;-69
2021/06/17 09:44:44;;;;;;;5.13;2.92;;;;;;;27.93;34.56;95272.66;5053153;28;20108;-68
2021/06/17 09:47:18;;;;;;;6.47;3.00;;;;;;;28.09;34.91;95280.25;5050682;28;20216;-68
2021/06/17 09:49:44;;;;;;;4.15;2.60;;;;;;;28.10;32.72;95288.06;5041920;28;20491;-69
2021/06/17 09:52:11;;;;;;;3.83;2.50;;;;;;;28.33;31.73;95287.31;5028072;28;20037;-69
2021/06/17 09:54:39;;;;;;;5.18;2.53;;;;;;;28.05;32.73;95252.97;5029860;28;20587;-69
2021/06/17 09:57:10;;;;;;;6.97;2.78;;;;;;;28.12;33.12;95260.28;5030600;28;20025;-69
2021/06/17 09:59:43;;;;;;;4.28;2.97;;;;;;;28.89;32.45;95268.38;5049475;28;20041;-69
2021/06/17 10:02:12;;;;;;;2.55;2.35;;;;;;;29.19;31.51;95286.63;5031631;28;20509;-68
2021/06/17 10:04:37;;;;;;;6.57;2.45;;;;;;;28.71;29.23;95271.44;5044925;28;20057;-69
2021/06/17 10:07:03;;;;;;;3.35;1.95;;;;;;;29.19;28.41;95256.47;5039888;28;20209;-68
2021/06/17 10:09:29;;;;;;;6.18;2.75;;;;;;;28.56;30.90;95256.47;5049566;28;20029;-69
2021/06/17 10:11:54;;;;;;;4.95;2.67;;;;;;;28.98;29.42;95265.88;5051417;28;20027;-68
2021/06/17 10:14:20;;;;;;;2.40;2.20;;;;;;;29.41;29.28;95273.25;5031227;28;20037;-69
2021/06/17 10:16:46;;;;;;;4.03;2.33;;;;;;;29.07;29.87;95284.47;5049991;28;20459;-68
2021/06/17 10:19:18;;;;;;;2.20;2.00;;;;;;;29.48;29.09;95272.31;5048890;28;20104;-68
2021/06/17 10:21:43;;;;;;;3.25;2.35;;;;;;;28.87;29.73;95284.47;5031311;28;20037;-68
2021/06/17 10:24:18;;;;;;;5.13;2.60;;;;;;;28.71;30.95;95256.97;5050904;28;20528;-68
2021/06/17 10:26:49;;;;;;;5.82;2.75;;;;;;;29.50;30.37;95272.69;5049854;28;20037;-68
2021/06/17 10:29:33;;;;;;;;;;;;;;;29.15;30.39;95272.22;5049774;28;20041;-68
2021/06/17 10:31:59;;;;;;;3.55;2.60;;;;;;;29.44;28.42;95277.91;5049383;28;19970;-69
2021/06/17 10:34:24;;;;;;;3.45;2.30;;;;;;;28.54;29.32;95279.94;5048718;28;20041;-68
2021/06/17 10:37:11;;;;;;;5.03;2.63;;;;;;;29.17;29.42;95266.31;5047162;28;20124;-68
2021/06/17 10:39:40;;;;;;;4.28;2.65;;;;;;;29.47;28.62;95260.59;5048962;28;20566;-69
2021/06/17 10:42:05;;;;;;;4.43;2.38;;;;;;;29.10;30.10;95280.16;5050964;28;20486;-69
2021/06/17 10:44:46;;;;;;;3.03;2.30;;;;;;;29.32;29.45;95277.75;5049378;28;20043;-69
2021/06/17 10:50:15;;;;;;;2.38;2.28;;;;;;;30.01;27.62;95241.03;5048532;28;20045;-69
2021/06/17 10:52:43;;;;;;;2.75;2.35;;;;;;;30.11;27.26;95265.91;5048804;28;20124;-69
2021/06/17 10:55:16;;;;;;;2.63;2.42;;;;;;;30.01;28.80;95245.75;5041634;28;20041;-68
2021/06/17 10:57:45;;;;;;;4.35;2.83;;;;;;;29.71;30.34;95266.78;5033079;28;20057;-68
2021/06/17 11:03:08;;;;;;;3.17;2.75;;;;;;;29.73;29.70;95258.13;5049039;28;20076;-68
2021/06/17 11:05:38;;;;;;;3.65;2.80;;;;;;;29.86;29.42;95258.25;5037627;28;20087;-68
2021/06/17 11:08:23;;;;;;;3.53;2.75;;;;;;;30.26;28.68;95250.69;5037107;28;20107;-68
2021/06/17 11:10:51;;;;;;;5.20;2.50;;;;;;;29.93;28.99;95239.66;5029126;28;20527;-69
2021/06/17 11:13:37;;;;;;;8.55;2.60;;;;;;;29.55;28.98;95217.41;5028726;28;20087;-69
2021/06/17 11:16:27;;;;;;;2.50;2.30;;;;;;;29.86;27.74;95247.28;5029147;28;20099;-68
2021/06/17 11:21:23;;;;;;;4.72;2.13;;;;;;;29.26;29.51;95239.13;5045662;28;20538;-68
2021/06/17 11:23:55;;;;;;;3.88;2.60;;;;;;;29.76;28.15;95238.84;5050459;28;20101;-68
2021/06/17 11:26:40;;;;;;;3.53;2.28;;;;;;;29.91;27.31;95233.81;5031736;28;20037;-68
2021/06/17 11:29:12;;;;;;;2.70;2.50;;;;;;;29.49;27.55;95197.94;5044034;28;20041;-68
2021/06/17 11:31:41;;;;;;;2.10;2.00;;;;;;;29.90;27.23;95228.78;5047105;28;20106;-69
2021/06/17 11:34:07;;;;;;;3.00;2.13;;;;;;;29.93;26.60;95228.69;5048068;28;20037;-69
2021/06/17 11:36:33;;;;;;;2.38;2.17;;;;;;;29.61;24.87;95225.91;5039967;28;20499;-68
2021/06/17 11:39:05;;;;;;;2.30;1.42;;;;;;;29.51;22.82;95222.94;5029314;28;20034;-69
2021/06/17 11:41:32;;;;;;;1.63;1.40;;;;;;;29.79;22.02;95231.75;5009941;28;20065;-69
2021/06/17 11:43:57;;;;;;;1.83;1.73;;;;;;;30.02;23.00;95233.56;5022123;28;20540;-69
2021/06/17 11:46:25;;;;;;;2.17;1.95;;;;;;;29.63;24.70;95229.75;5028150;28;20045;-68
2021/06/17 11:48:57;;;;;;;1.83;1.70;;;;;;;29.70;24.60;95234.31;5027968;28;20033;-68
2021/06/17 11:51:22;;;;;;;2.47;1.65;;;;;;;30.21;23.46;95229.25;5043766;28;20021;-69
2021/06/17 11:53:49;;;;;;;5.53;2.05;;;;;;;29.66;23.86;95217.94;5028050;28;20398;-69
2021/06/17 11:56:30;;;;;;;2.08;1.88;;;;;;;29.93;24.13;95203.22;5044321;28;20030;-69
2021/06/17 11:58:55;;;;;;;1.90;1.80;;;;;;;30.15;24.83;95181.56;5047718;28;20107;-69
2021/06/17 12:01:21;;;;;;;3.47;2.00;;;;;;;30.85;24.05;95222.13;5021218;28;20037;-69
2021/06/17 12:04:00;;;;;;;2.67;1.90;;;;;;;30.91;23.27;95223.13;5032061;28;20040;-68
2021/06/17 12:06:26;;;;;;;3.10;1.55;;;;;;;30.68;22.86;95209.63;5038918;28;20048;-68
2021/06/17 12:09:02;;;;;;;2.55;2.20;;;;;;;30.57;22.59;95217.38;5012199;28;20021;-68
2021/06/17 12:11:28;;;;;;;2.20;1.70;;;;;;;30.91;21.90;95228.63;5028084;28;20033;-68
2021/06/17 12:13:55;;;;;;;4.13;1.90;;;;;;;30.35;24.07;95219.88;5033887;28;20832;-68
2021/06/17 12:16:21;;;;;;;1.88;1.73;;;;;;;30.88;22.96;95221.25;5026600;28;20056;-68
2021/06/17 12:18:46;;;;;;;1.77;1.67;;;;;;;30.81;21.92;95210.44;5027738;28;20042;-68
2021/06/17 12:21:24;;;;;;;3.60;2.30;;;;;;;30.78;22.56;95200.34;5025447;28;20116;-69
2021/06/17 12:23:49;;;;;;;2.28;1.80;;;;;;;30.05;22.82;95180.63;5027856;28;20120;-69
2021/06/17 12:26:15;;;;;;;1.70;1.60;;;;;;;30.37;23.36;95207.28;5027700;28;20121;-69
2021/06/17 12:28:55;;;;;;;2.60;1.60;;;;;;;30.16;23.13;95199.59;5027626;28;20256;-69
2021/06/17 12:31:26;;;;;;;5.20;2.15;;;;;;;30.49;22.63;95208.53;5036481;28;20045;-68
2021/06/17 12:34:02;;;;;;;;;;;;;;;30.84;22.47;95204.09;5044909;28;20045;-68
2021/06/17 12:36:28;;;;;;;3.20;1.80;;;;;;;30.65;22.88;95183.78;5023084;28;19967;-68
2021/06/17 12:38:53;;;;;;;2.60;1.60;;;;;;;30.79;22.88;95201.88;5049496;28;20056;-70
2021/06/17 12:41:22;;;;;;;2.58;1.50;;;;;;;30.55;22.56;95209.53;5051317;28;20067;-70
2021/06/17 12:43:53;;;;;;;2.00;1.90;;;;;;;30.45;23.06;95205.09;5050857;28;20029;-68
2021/06/17 12:46:34;;;;;;;1.80;1.70;;;;;;;30.29;22.98;95203.16;5051404;28;20132;-68
2021/06/17 12:54:30;;;;;;;2.08;1.73;;;;;;;30.03;22.10;95197.47;5070926;28;20030;-68
2021/06/17 12:57:01;;;;;;;2.55;1.70;;;;;;;30.36;21.66;95188.50;5053537;28;20017;-68
2021/06/17 12:59:50;;;;;;;1.50;1.40;;;;;;;30.85;22.54;95197.41;5050957;28;20052;-68
2021/06/17 13:02:20;;;;;;;2.58;1.70;;;;;;;31.13;21.02;95195.06;5040963;28;20047;-68
2021/06/17 13:05:22;;;;;;;2.03;1.80;;;;;;;30.57;21.99;95195.41;5049784;28;20442;-68
2021/06/17 13:08:11;;;;;;;1.65;1.55;;;;;;;31.30;21.96;95188.31;5028364;28;20049;-68
2021/06/17 13:10:50;;;;;;;2.92;1.60;;;;;;;31.12;21.59;95166.84;5030774;28;20553;-69
2021/06/17 13:13:26;;;;;;;2.60;1.48;;;;;;;31.43;21.18;95189.13;5038543;28;20037;-68
2021/06/17 13:15:55;;;;;;;3.28;1.60;;;;;;;30.89;22.56;95200.81;5050766;28;20538;-70
2021/06/17 13:18:22;;;;;;;4.18;1.90;;;;;;;30.93;22.73;95190.53;5050559;28;20033;-69
2021/06/17 13:20:52;;;;;;;1.88;1.65;;;;;;;30.71;22.57;95173.88;5034204;28;20013;-69
2021/06/17 13:23:31;;;;;;;2.00;1.60;;;;;;;30.93;21.59;95193.25;5048818;28;20498;-72